sensor_id;sensor_type;location;lat;lon;timestamp;pressure;altitude;pressure_sealevel;temperature;humidity
9423;BME280;65863;49.506;10.400;2023-07-16T00:01:07;97713.03;;;20.27;100.00
9423;BME280;65863;49.506;10.400;2023-07-16T00:03:51;97719.13;;;20.22;100.00
9423;BME280;65863;49.506;10.400;2023-07-16T00:06:35;97708.38;;;19.94;100.00
9423;BME280;65863;49.506;10.400;2023-07-16T00:09:19;97724.50;;;19.90;100.00
9423;BME280;65863;49.506;10.400;2023-07-16T00:12:04;97746.41;;;19.87;100.00
9423;BME280;65863;49.506;10.400;2023-07-16T00:14:48;97767.28;;;20.04;100.00
9423;BME280;65863;49.506;10.400;2023-07-16T00:17:35;97737.47;;;19.55;100.00
9423;BME280;65863;49.506;10.400;2023-07-16T00:20:19;97779.75;;;19.73;100.00
9423;BME280;65863;49.506;10.400;2023-07-16T00:23:03;97770.63;;;19.63;100.00
9423;BME280;65863;49.506;10.400;2023-07-16T00:25:47;97818.25;;;19.86;100.00
9423;BME280;65863;49.506;10.400;2023-07-16T00:28:31;97804.41;;;19.68;100.00
9423;BME280;65863;49.506;10.400;2023-07-16T00:31:15;97827.31;;;19.58;100.00
9423;BME280;65863;49.506;10.400;2023-07-16T00:33:59;97832.03;;;19.42;100.00
9423;BME280;65863;49.506;10.400;2023-07-16T00:36:43;97871.53;;;19.36;100.00
9423;BME280;65863;49.506;10.400;2023-07-16T00:39:28;97812.47;;;18.77;100.00
9423;BME280;65863;49.506;10.400;2023-07-16T00:42:12;97915.44;;;19.33;100.00
9423;BME280;65863;49.506;10.400;2023-07-16T00:44:56;97902.06;;;19.00;100.00
9423;BME280;65863;49.506;10.400;2023-07-16T00:47:41;97863.91;;;18.81;100.00
9423;BME280;65863;49.506;10.400;2023-07-16T00:50:25;97883.47;;;18.87;100.00
9423;BME280;65863;49.506;10.400;2023-07-16T00:53:10;97886.41;;;18.77;100.00
9423;BME280;65863;49.506;10.400;2023-07-16T00:55:54;97904.94;;;18.78;100.00
9423;BME280;65863;49.506;10.400;2023-07-16T00:58:39;97908.78;;;18.83;100.00
9423;BME280;65863;49.506;10.400;2023-07-16T01:01:23;97884.91;;;18.76;100.00
9423;BME280;65863;49.506;10.400;2023-07-16T01:04:07;97846.44;;;18.63;100.00
9423;BME280;65863;49.506;10.400;2023-07-16T01:06:53;97892.56;;;18.85;100.00
9423;BME280;65863;49.506;10.400;2023-07-16T01:09:42;97886.66;;;18.81;100.00
9423;BME280;65863;49.506;10.400;2023-07-16T01:12:26;97815.38;;;18.44;100.00
9423;BME280;65863;49.506;10.400;2023-07-16T01:15:11;97853.00;;;18.78;100.00
9423;BME280;65863;49.506;10.400;2023-07-16T01:17:57;97843.38;;;18.83;100.00
9423;BME280;65863;49.506;10.400;2023-07-16T01:20:42;97820.84;;;18.63;100.00
9423;BME280;65863;49.506;10.400;2023-07-16T01:27:04;97838.72;;;18.87;100.00
9423;BME280;65863;49.506;10.400;2023-07-16T01:30:02;97824.00;;;18.91;100.00
9423;BME280;65863;49.506;10.400;2023-07-16T01:32:48;97762.38;;;18.48;100.00
9423;BME280;65863;49.506;10.400;2023-07-16T01:35:33;97804.78;;;18.80;100.00
9423;BME280;65863;49.506;10.400;2023-07-16T01:38:18;97826.25;;;18.92;100.00
9423;BME280;65863;49.506;10.400;2023-07-16T01:41:02;97827.13;;;19.07;100.00
9423;BME280;65863;49.506;10.400;2023-07-16T01:43:46;97796.69;;;18.98;100.00
9423;BME280;65863;49.506;10.400;2023-07-16T01:46:30;97763.03;;;18.82;100.00
9423;BME280;65863;49.506;10.400;2023-07-16T01:49:14;97799.16;;;19.03;100.00
9423;BME280;65863;49.506;10.400;2023-07-16T01:52:00;97815.22;;;19.10;100.00
9423;BME280;65863;49.506;10.400;2023-07-16T01:54:44;97807.56;;;18.89;100.00
9423;BME280;65863;49.506;10.400;2023-07-16T01:57:28;97816.09;;;19.01;100.00
9423;BME280;65863;49.506;10.400;2023-07-16T02:00:13;97806.09;;;18.88;100.00
9423;BME280;65863;49.506;10.400;2023-07-16T02:03:04;97802.88;;;18.94;100.00
9423;BME280;65863;49.506;10.400;2023-07-16T02:05:49;97806.44;;;19.06;100.00
9423;BME280;65863;49.506;10.400;2023-07-16T02:08:33;97814.34;;;19.08;100.00
9423;BME280;65863;49.506;10.400;2023-07-16T02:11:17;97813.75;;;18.98;100.00
9423;BME280;65863;49.506;10.400;2023-07-16T02:14:02;97814.19;;;18.82;100.00
9423;BME280;65863;49.506;10.400;2023-07-16T02:16:47;97829.91;;;18.83;100.00
9423;BME280;65863;49.506;10.400;2023-07-16T02:19:30;97849.81;;;18.83;100.00
9423;BME280;65863;49.506;10.400;2023-07-16T02:22:14;97872.56;;;18.83;100.00
9423;BME280;65863;49.506;10.400;2023-07-16T02:24:58;97836.31;;;18.60;100.00
9423;BME280;65863;49.506;10.400;2023-07-16T02:27:42;97872.03;;;18.75;100.00
9423;BME280;65863;49.506;10.400;2023-07-16T02:30:26;97873.97;;;18.61;100.00
9423;BME280;65863;49.506;10.400;2023-07-16T02:33:10;97823.47;;;18.26;100.00
9423;BME280;65863;49.506;10.400;2023-07-16T02:35:54;97857.94;;;18.65;100.00
9423;BME280;65863;49.506;10.400;2023-07-16T02:38:39;97827.78;;;18.27;100.00
9423;BME280;65863;49.506;10.400;2023-07-16T02:41:23;97884.81;;;18.52;100.00
9423;BME280;65863;49.506;10.400;2023-07-16T02:44:08;97889.25;;;18.44;100.00
9423;BME280;65863;49.506;10.400;2023-07-16T02:46:52;97912.22;;;18.36;100.00
9423;BME280;65863;49.506;10.400;2023-07-16T02:49:37;97907.25;;;18.36;100.00
9423;BME280;65863;49.506;10.400;2023-07-16T02:52:22;97937.34;;;18.30;100.00
9423;BME280;65863;49.506;10.400;2023-07-16T02:55:06;97888.63;;;17.80;100.00
9423;BME280;65863;49.506;10.400;2023-07-16T02:57:51;97910.41;;;17.87;100.00
9423;BME280;65863;49.506;10.400;2023-07-16T03:00:35;97940.03;;;17.84;99.40
9423;BME280;65863;49.506;10.400;2023-07-16T03:03:18;97958.25;;;17.91;99.20
9423;BME280;65863;49.506;10.400;2023-07-16T03:06:03;97957.22;;;17.86;98.96
9423;BME280;65863;49.506;10.400;2023-07-16T03:08:47;97951.38;;;17.84;98.64
9423;BME280;65863;49.506;10.400;2023-07-16T03:11:34;97936.53;;;17.64;98.28
9423;BME280;65863;49.506;10.400;2023-07-16T03:14:18;97972.66;;;17.73;98.42
9423;BME280;65863;49.506;10.400;2023-07-16T03:17:02;97949.72;;;17.60;97.67
9423;BME280;65863;49.506;10.400;2023-07-16T03:19:47;97912.81;;;17.28;96.97
9423;BME280;65863;49.506;10.400;2023-07-16T03:22:31;97932.78;;;17.40;96.23
9423;BME280;65863;49.506;10.400;2023-07-16T03:25:15;97960.50;;;17.51;95.89
9423;BME280;65863;49.506;10.400;2023-07-16T03:27:59;97960.22;;;17.47;95.30
9423;BME280;65863;49.506;10.400;2023-07-16T03:30:48;97960.69;;;17.44;95.39
9423;BME280;65863;49.506;10.400;2023-07-16T03:33:33;97964.88;;;17.43;95.49
9423;BME280;65863;49.506;10.400;2023-07-16T03:36:18;97943.53;;;17.32;95.70
9423;BME280;65863;49.506;10.400;2023-07-16T03:39:02;97953.22;;;17.38;95.77
9423;BME280;65863;49.506;10.400;2023-07-16T03:41:46;97947.19;;;17.23;96.13
9423;BME280;65863;49.506;10.400;2023-07-16T03:44:32;97938.78;;;17.25;96.11
9423;BME280;65863;49.506;10.400;2023-07-16T03:47:17;97938.47;;;17.30;96.50
9423;BME280;65863;49.506;10.400;2023-07-16T03:50:01;97916.41;;;17.19;96.78
9423;BME280;65863;49.506;10.400;2023-07-16T03:52:45;97936.13;;;17.27;96.42
9423;BME280;65863;49.506;10.400;2023-07-16T03:55:31;97950.88;;;17.25;96.73
9423;BME280;65863;49.506;10.400;2023-07-16T03:58:15;97940.94;;;17.04;96.18
9423;BME280;65863;49.506;10.400;2023-07-16T04:00:58;97986.31;;;17.14;95.90
9423;BME280;65863;49.506;10.400;2023-07-16T04:03:43;97918.47;;;16.58;95.75
9423;BME280;65863;49.506;10.400;2023-07-16T04:06:28;97981.84;;;17.01;95.89
9423;BME280;65863;49.506;10.400;2023-07-16T04:09:12;97988.25;;;16.82;95.81
9423;BME280;65863;49.506;10.400;2023-07-16T04:11:56;98004.53;;;16.92;95.88
9423;BME280;65863;49.506;10.400;2023-07-16T04:14:40;97983.34;;;16.73;95.45
9423;BME280;65863;49.506;10.400;2023-07-16T04:17:24;97922.81;;;16.29;94.97
9423;BME280;65863;49.506;10.400;2023-07-16T04:20:08;98023.19;;;16.95;94.72
9423;BME280;65863;49.506;10.400;2023-07-16T04:22:52;98013.31;;;16.76;94.54
9423;BME280;65863;49.506;10.400;2023-07-16T04:25:36;98028.09;;;16.84;94.13
9423;BME280;65863;49.506;10.400;2023-07-16T04:28:20;98051.97;;;17.01;93.82
9423;BME280;65863;49.506;10.400;2023-07-16T04:31:04;98049.72;;;17.09;93.46
9423;BME280;65863;49.506;10.400;2023-07-16T04:33:48;98020.34;;;17.04;93.21
9423;BME280;65863;49.506;10.400;2023-07-16T04:36:32;98039.44;;;17.04;92.85
9423;BME280;65863;49.506;10.400;2023-07-16T04:39:16;98008.72;;;16.91;92.84
9423;BME280;65863;49.506;10.400;2023-07-16T04:42:00;98045.44;;;16.98;93.13
9423;BME280;65863;49.506;10.400;2023-07-16T04:44:44;97998.84;;;16.72;92.77
9423;BME280;65863;49.506;10.400;2023-07-16T04:47:28;98053.34;;;17.00;92.96
9423;BME280;65863;49.506;10.400;2023-07-16T04:50:11;98067.81;;;17.04;93.35
9423;BME280;65863;49.506;10.400;2023-07-16T04:52:55;98071.53;;;16.97;93.48
9423;BME280;65863;49.506;10.400;2023-07-16T04:55:39;98079.75;;;17.02;93.51
9423;BME280;65863;49.506;10.400;2023-07-16T04:58:24;98007.81;;;16.59;93.60
9423;BME280;65863;49.506;10.400;2023-07-16T05:01:09;98078.69;;;17.17;93.33
9423;BME280;65863;49.506;10.400;2023-07-16T05:03:52;98079.41;;;17.28;93.45
9423;BME280;65863;49.506;10.400;2023-07-16T05:06:37;98087.91;;;17.47;93.10
9423;BME280;65863;49.506;10.400;2023-07-16T05:09:21;97959.03;;;16.70;92.42
9423;BME280;65863;49.506;10.400;2023-07-16T05:12:05;98072.78;;;17.54;92.00
9423;BME280;65863;49.506;10.400;2023-07-16T05:14:50;98096.28;;;17.45;91.25
9423;BME280;65863;49.506;10.400;2023-07-16T05:17:35;98107.63;;;17.55;91.31
9423;BME280;65863;49.506;10.400;2023-07-16T05:20:19;98068.97;;;17.20;91.26
9423;BME280;65863;49.506;10.400;2023-07-16T05:23:03;98081.34;;;17.25;91.12
9423;BME280;65863;49.506;10.400;2023-07-16T05:25:50;98107.94;;;17.40;91.21
9423;BME280;65863;49.506;10.400;2023-07-16T05:28:34;98093.75;;;17.30;91.22
9423;BME280;65863;49.506;10.400;2023-07-16T05:31:20;98084.22;;;17.15;91.23
9423;BME280;65863;49.506;10.400;2023-07-16T05:34:04;98130.31;;;17.45;91.79
9423;BME280;65863;49.506;10.400;2023-07-16T05:36:48;98110.16;;;17.61;92.23
9423;BME280;65863;49.506;10.400;2023-07-16T05:39:32;98095.75;;;17.78;92.03
9423;BME280;65863;49.506;10.400;2023-07-16T05:42:16;98089.09;;;18.05;91.87
9423;BME280;65863;49.506;10.400;2023-07-16T05:44:59;98074.81;;;17.83;90.50
9423;BME280;65863;49.506;10.400;2023-07-16T05:47:43;98077.91;;;17.87;90.02
9423;BME280;65863;49.506;10.400;2023-07-16T05:50:27;98103.63;;;17.89;89.80
9423;BME280;65863;49.506;10.400;2023-07-16T05:53:11;98083.53;;;17.66;89.25
9423;BME280;65863;49.506;10.400;2023-07-16T05:55:57;98096.06;;;17.72;89.08
9423;BME280;65863;49.506;10.400;2023-07-16T05:58:41;98044.16;;;17.31;89.59
9423;BME280;65863;49.506;10.400;2023-07-16T06:01:25;98046.69;;;17.46;89.88
9423;BME280;65863;49.506;10.400;2023-07-16T06:04:09;98077.13;;;17.55;89.69
9423;BME280;65863;49.506;10.400;2023-07-16T06:06:53;98135.88;;;18.04;89.40
9423;BME280;65863;49.506;10.400;2023-07-16T06:09:37;98130.63;;;18.10;88.78
9423;BME280;65863;49.506;10.400;2023-07-16T06:12:21;98132.47;;;17.86;88.29
9423;BME280;65863;49.506;10.400;2023-07-16T06:15:06;98135.03;;;17.82;88.30
9423;BME280;65863;49.506;10.400;2023-07-16T06:17:50;98151.91;;;17.89;87.92
9423;BME280;65863;49.506;10.400;2023-07-16T06:20:34;98144.31;;;17.72;88.33
9423;BME280;65863;49.506;10.400;2023-07-16T06:23:18;98174.31;;;17.85;88.33
9423;BME280;65863;49.506;10.400;2023-07-16T06:26:02;98160.00;;;17.83;88.15
9423;BME280;65863;49.506;10.400;2023-07-16T06:28:47;98152.84;;;17.72;87.76
9423;BME280;65863;49.506;10.400;2023-07-16T06:31:34;98142.09;;;17.51;87.46
9423;BME280;65863;49.506;10.400;2023-07-16T06:34:18;98150.63;;;17.61;87.12
9423;BME280;65863;49.506;10.400;2023-07-16T06:37:02;98149.59;;;17.57;86.68
9423;BME280;65863;49.506;10.400;2023-07-16T06:39:45;98152.72;;;17.61;86.56
9423;BME280;65863;49.506;10.400;2023-07-16T06:42:29;98160.63;;;17.52;86.32
9423;BME280;65863;49.506;10.400;2023-07-16T06:45:14;98165.84;;;17.56;86.09
9423;BME280;65863;49.506;10.400;2023-07-16T06:47:58;98129.13;;;17.19;85.44
9423;BME280;65863;49.506;10.400;2023-07-16T06:50:42;98194.38;;;17.68;85.11
9423;BME280;65863;49.506;10.400;2023-07-16T06:53:26;98168.97;;;17.80;84.59
9423;BME280;65863;49.506;10.400;2023-07-16T06:56:10;98155.06;;;17.94;83.53
9423;BME280;65863;49.506;10.400;2023-07-16T06:58:53;98166.09;;;17.89;81.81
9423;BME280;65863;49.506;10.400;2023-07-16T07:01:37;98187.63;;;18.02;80.55
9423;BME280;65863;49.506;10.400;2023-07-16T07:04:21;98149.16;;;18.11;80.27
9423;BME280;65863;49.506;10.400;2023-07-16T07:07:06;98138.44;;;17.90;79.87
9423;BME280;65863;49.506;10.400;2023-07-16T07:09:50;98155.72;;;18.23;79.39
9423;BME280;65863;49.506;10.400;2023-07-16T07:12:34;98201.38;;;18.47;79.41
9423;BME280;65863;49.506;10.400;2023-07-16T07:15:21;98191.50;;;18.48;79.78
9423;BME280;65863;49.506;10.400;2023-07-16T07:18:05;98138.00;;;18.03;79.44
9423;BME280;65863;49.506;10.400;2023-07-16T07:20:50;98014.66;;;16.85;79.48
9423;BME280;65863;49.506;10.400;2023-07-16T07:23:35;98056.69;;;17.47;79.62
9423;BME280;65863;49.506;10.400;2023-07-16T07:26:18;98166.78;;;18.82;80.18
9423;BME280;65863;49.506;10.400;2023-07-16T07:29:03;98184.03;;;19.06;79.05
9423;BME280;65863;49.506;10.400;2023-07-16T07:31:47;98134.72;;;18.91;78.05
9423;BME280;65863;49.506;10.400;2023-07-16T07:34:34;97930.06;;;17.42;76.79
9423;BME280;65863;49.506;10.400;2023-07-16T07:37:19;98217.09;;;19.33;76.13
9423;BME280;65863;49.506;10.400;2023-07-16T07:40:03;98006.25;;;18.40;75.88
9423;BME280;65863;49.506;10.400;2023-07-16T07:42:47;98165.47;;;19.60;74.81
9423;BME280;65863;49.506;10.400;2023-07-16T07:45:31;98174.25;;;19.52;74.00
9423;BME280;65863;49.506;10.400;2023-07-16T07:48:15;98182.91;;;19.54;74.44
9423;BME280;65863;49.506;10.400;2023-07-16T07:50:59;98128.91;;;19.11;73.98
9423;BME280;65863;49.506;10.400;2023-07-16T07:53:43;98169.66;;;19.25;73.79
9423;BME280;65863;49.506;10.400;2023-07-16T07:56:27;98174.00;;;19.26;74.03
9423;BME280;65863;49.506;10.400;2023-07-16T07:59:11;98165.31;;;19.24;74.58
9423;BME280;65863;49.506;10.400;2023-07-16T08:01:56;98184.28;;;19.32;74.74
9423;BME280;65863;49.506;10.400;2023-07-16T08:04:41;98129.72;;;19.02;74.20
9423;BME280;65863;49.506;10.400;2023-07-16T08:07:24;98121.44;;;19.06;73.73
9423;BME280;65863;49.506;10.400;2023-07-16T08:10:10;98155.06;;;19.53;73.35
9423;BME280;65863;49.506;10.400;2023-07-16T08:12:54;98193.19;;;20.50;72.83
9423;BME280;65863;49.506;10.400;2023-07-16T08:15:38;98139.63;;;20.13;70.95
9423;BME280;65863;49.506;10.400;2023-07-16T08:18:22;98150.53;;;20.52;70.45
9423;BME280;65863;49.506;10.400;2023-07-16T08:21:06;98170.47;;;20.28;68.92
9423;BME280;65863;49.506;10.400;2023-07-16T08:23:50;98166.13;;;20.51;68.78
9423;BME280;65863;49.506;10.400;2023-07-16T08:26:33;98155.22;;;20.24;68.41
9423;BME280;65863;49.506;10.400;2023-07-16T08:29:17;98183.63;;;20.34;69.07
9423;BME280;65863;49.506;10.400;2023-07-16T08:32:01;98191.41;;;20.21;69.38
9423;BME280;65863;49.506;10.400;2023-07-16T08:34:47;98202.56;;;20.29;69.96
9423;BME280;65863;49.506;10.400;2023-07-16T08:37:31;98181.97;;;20.07;69.75
9423;BME280;65863;49.506;10.400;2023-07-16T08:40:15;98158.53;;;19.63;69.48
9423;BME280;65863;49.506;10.400;2023-07-16T08:43:00;98165.38;;;20.15;70.13
9423;BME280;65863;49.506;10.400;2023-07-16T08:45:44;98037.41;;;20.19;69.62
9423;BME280;65863;49.506;10.400;2023-07-16T08:48:29;98200.41;;;21.74;67.53
9423;BME280;65863;49.506;10.400;2023-07-16T08:51:15;98195.41;;;22.00;65.47
9423;BME280;65863;49.506;10.400;2023-07-16T08:53:59;98150.66;;;21.65;62.78
9423;BME280;65863;49.506;10.400;2023-07-16T08:56:44;98091.41;;;21.65;61.53
9423;BME280;65863;49.506;10.400;2023-07-16T08:59:28;98176.81;;;22.66;60.29
9423;BME280;65863;49.506;10.400;2023-07-16T09:02:13;98153.72;;;22.34;58.77
9423;BME280;65863;49.506;10.400;2023-07-16T09:04:58;98163.81;;;22.63;59.18
9423;BME280;65863;49.506;10.400;2023-07-16T09:07:42;98162.31;;;22.62;57.65
9423;BME280;65863;49.506;10.400;2023-07-16T09:10:26;98215.09;;;23.15;57.22
9423;BME280;65863;49.506;10.400;2023-07-16T09:13:10;98167.59;;;22.82;55.79
9423;BME280;65863;49.506;10.400;2023-07-16T09:15:56;98228.97;;;22.93;56.34
9423;BME280;65863;49.506;10.400;2023-07-16T09:18:40;98092.88;;;21.92;56.99
9423;BME280;65863;49.506;10.400;2023-07-16T09:21:25;98166.22;;;22.55;56.65
9423;BME280;65863;49.506;10.400;2023-07-16T09:24:12;98208.53;;;22.31;54.76
9423;BME280;65863;49.506;10.400;2023-07-16T09:26:57;98109.56;;;21.32;54.49
9423;BME280;65863;49.506;10.400;2023-07-16T09:29:42;97961.09;;;20.55;55.21
9423;BME280;65863;49.506;10.400;2023-07-16T09:32:36;98047.66;;;21.49;55.50
9423;BME280;65863;49.506;10.400;2023-07-16T09:35:21;98015.00;;;21.26;55.14
9423;BME280;65863;49.506;10.400;2023-07-16T09:38:07;98059.72;;;21.87;56.13
9423;BME280;65863;49.506;10.400;2023-07-16T09:40:55;98159.03;;;22.68;55.12
9423;BME280;65863;49.506;10.400;2023-07-16T09:43:40;98127.69;;;22.70;54.43
9423;BME280;65863;49.506;10.400;2023-07-16T09:46:25;98062.09;;;22.18;54.18
9423;BME280;65863;49.506;10.400;2023-07-16T09:49:09;98054.53;;;21.83;54.30
9423;BME280;65863;49.506;10.400;2023-07-16T09:51:56;98130.94;;;22.37;55.45
9423;BME280;65863;49.506;10.400;2023-07-16T09:54:41;98056.44;;;21.93;54.70
9423;BME280;65863;49.506;10.400;2023-07-16T09:57:27;98200.47;;;23.23;54.25
9423;BME280;65863;49.506;10.400;2023-07-16T10:00:13;98064.75;;;22.42;52.06
9423;BME280;65863;49.506;10.400;2023-07-16T10:03:00;98077.16;;;22.47;52.39
9423;BME280;65863;49.506;10.400;2023-07-16T10:05:45;98190.56;;;23.40;52.47
9423;BME280;65863;49.506;10.400;2023-07-16T10:08:33;98154.44;;;23.04;52.15
9423;BME280;65863;49.506;10.400;2023-07-16T10:11:20;98063.81;;;22.65;51.74
9423;BME280;65863;49.506;10.400;2023-07-16T10:14:04;98108.59;;;22.89;51.86
9423;BME280;65863;49.506;10.400;2023-07-16T10:16:49;98063.81;;;22.38;50.24
9423;BME280;65863;49.506;10.400;2023-07-16T10:22:46;97941.38;;;21.37;50.50
9423;BME280;65863;49.506;10.400;2023-07-16T10:25:31;98110.31;;;22.66;51.55
9423;BME280;65863;49.506;10.400;2023-07-16T10:28:15;97949.75;;;21.60;50.79
9423;BME280;65863;49.506;10.400;2023-07-16T10:31:00;98060.16;;;22.79;50.86
9423;BME280;65863;49.506;10.400;2023-07-16T10:33:44;98033.56;;;23.20;49.12
9423;BME280;65863;49.506;10.400;2023-07-16T10:36:28;98019.47;;;23.40;47.67
9423;BME280;65863;49.506;10.400;2023-07-16T10:39:15;98167.56;;;23.97;48.33
9423;BME280;65863;49.506;10.400;2023-07-16T10:41:59;98176.28;;;24.31;49.00
9423;BME280;65863;49.506;10.400;2023-07-16T10:44:49;97947.97;;;22.96;48.11
9423;BME280;65863;49.506;10.400;2023-07-16T10:47:37;98029.19;;;23.49;47.04
9423;BME280;65863;49.506;10.400;2023-07-16T10:50:21;98019.06;;;23.62;47.74
9423;BME280;65863;49.506;10.400;2023-07-16T10:53:06;98138.16;;;24.77;47.84
9423;BME280;65863;49.506;10.400;2023-07-16T10:55:50;98007.75;;;24.14;48.74
9423;BME280;65863;49.506;10.400;2023-07-16T10:58:37;97967.66;;;23.82;46.21
9423;BME280;65863;49.506;10.400;2023-07-16T11:01:21;98026.81;;;24.23;46.68
9423;BME280;65863;49.506;10.400;2023-07-16T11:04:08;98070.53;;;24.39;46.49
9423;BME280;65863;49.506;10.400;2023-07-16T11:06:52;98050.03;;;24.13;47.62
9423;BME280;65863;49.506;10.400;2023-07-16T11:09:41;97889.25;;;23.25;47.97
9423;BME280;65863;49.506;10.400;2023-07-16T11:12:26;97987.97;;;24.04;46.23
9423;BME280;65863;49.506;10.400;2023-07-16T11:15:11;98036.59;;;24.68;46.36
9423;BME280;65863;49.506;10.400;2023-07-16T11:17:55;98040.59;;;24.77;46.53
9423;BME280;65863;49.506;10.400;2023-07-16T11:20:40;97941.34;;;24.19;46.38
9423;BME280;65863;49.506;10.400;2023-07-16T11:23:24;97945.03;;;24.22;45.92
9423;BME280;65863;49.506;10.400;2023-07-16T11:26:10;98171.50;;;25.90;45.89
9423;BME280;65863;49.506;10.400;2023-07-16T11:28:54;98105.38;;;25.34;45.07
9423;BME280;65863;49.506;10.400;2023-07-16T11:31:39;98101.25;;;25.39;45.41
9423;BME280;65863;49.506;10.400;2023-07-16T11:34:25;98098.25;;;25.35;45.90
9423;BME280;65863;49.506;10.400;2023-07-16T11:37:10;98134.91;;;25.54;45.71
9423;BME280;65863;49.506;10.400;2023-07-16T11:39:56;98118.16;;;25.67;45.67
9423;BME280;65863;49.506;10.400;2023-07-16T11:42:40;98047.44;;;25.39;45.28
9423;BME280;65863;49.506;10.400;2023-07-16T11:45:26;98118.59;;;26.15;44.30
9423;BME280;65863;49.506;10.400;2023-07-16T11:48:10;98107.91;;;26.00;44.10
9423;BME280;65863;49.506;10.400;2023-07-16T11:50:54;98088.94;;;25.54;44.33
9423;BME280;65863;49.506;10.400;2023-07-16T11:53:38;98044.63;;;25.41;44.05
9423;BME280;65863;49.506;10.400;2023-07-16T11:56:22;98120.38;;;26.44;43.87
9423;BME280;65863;49.506;10.400;2023-07-16T11:59:06;98103.25;;;26.28;43.91
9423;BME280;65863;49.506;10.400;2023-07-16T12:01:50;98083.03;;;26.26;43.37
9423;BME280;65863;49.506;10.400;2023-07-16T12:04:34;97955.88;;;25.50;43.23
9423;BME280;65863;49.506;10.400;2023-07-16T12:07:38;98061.44;;;26.45;43.10
9423;BME280;65863;49.506;10.400;2023-07-16T12:10:22;98081.84;;;26.54;43.25
9423;BME280;65863;49.506;10.400;2023-07-16T12:13:06;98120.59;;;26.91;43.11
9423;BME280;65863;49.506;10.400;2023-07-16T12:15:50;98109.84;;;26.71;42.57
9423;BME280;65863;49.506;10.400;2023-07-16T12:18:34;98068.06;;;26.70;42.37
9423;BME280;65863;49.506;10.400;2023-07-16T12:21:18;98083.69;;;26.65;42.42
9423;BME280;65863;49.506;10.400;2023-07-16T12:24:02;98062.13;;;26.66;42.51
9423;BME280;65863;49.506;10.400;2023-07-16T12:26:46;98094.88;;;26.97;43.38
9423;BME280;65863;49.506;10.400;2023-07-16T12:29:31;98062.31;;;26.50;42.84
9423;BME280;65863;49.506;10.400;2023-07-16T12:32:15;98078.06;;;27.11;42.93
9423;BME280;65863;49.506;10.400;2023-07-16T12:34:59;98100.25;;;27.07;42.28
9423;BME280;65863;49.506;10.400;2023-07-16T12:37:44;98045.78;;;26.93;41.82
9423;BME280;65863;49.506;10.400;2023-07-16T12:40:29;98092.06;;;27.21;42.34
9423;BME280;65863;49.506;10.400;2023-07-16T12:43:13;98073.69;;;27.10;42.12
9423;BME280;65863;49.506;10.400;2023-07-16T12:45:57;98093.34;;;26.94;43.05
9423;BME280;65863;49.506;10.400;2023-07-16T12:48:41;98088.78;;;26.06;43.02
9423;BME280;65863;49.506;10.400;2023-07-16T12:51:25;98088.66;;;26.62;43.43
9423;BME280;65863;49.506;10.400;2023-07-16T12:54:09;98092.94;;;27.26;42.70
9423;BME280;65863;49.506;10.400;2023-07-16T12:56:54;98060.66;;;27.07;41.72
9423;BME280;65863;49.506;10.400;2023-07-16T12:59:39;98063.28;;;27.43;41.60
9423;BME280;65863;49.506;10.400;2023-07-16T13:02:22;98034.59;;;27.47;41.22
9423;BME280;65863;49.506;10.400;2023-07-16T13:05:07;98046.66;;;27.66;41.57
9423;BME280;65863;49.506;10.400;2023-07-16T13:07:51;98070.44;;;27.42;40.75
9423;BME280;65863;49.506;10.400;2023-07-16T13:10:36;97893.78;;;26.67;40.58
9423;BME280;65863;49.506;10.400;2023-07-16T13:13:20;98030.66;;;27.61;40.74
9423;BME280;65863;49.506;10.400;2023-07-16T13:16:04;98080.22;;;28.04;41.02
9423;BME280;65863;49.506;10.400;2023-07-16T13:18:49;98042.13;;;27.83;41.20
9423;BME280;65863;49.506;10.400;2023-07-16T13:21:33;98086.06;;;28.06;40.53
9423;BME280;65863;49.506;10.400;2023-07-16T13:24:17;98053.31;;;27.97;41.12
9423;BME280;65863;49.506;10.400;2023-07-16T13:27:01;98072.28;;;28.55;39.57
9423;BME280;65863;49.506;10.400;2023-07-16T13:29:46;98022.09;;;28.40;39.03
9423;BME280;65863;49.506;10.400;2023-07-16T13:32:30;98056.16;;;28.19;39.69
9423;BME280;65863;49.506;10.400;2023-07-16T13:35:15;97955.00;;;26.90;40.26
9423;BME280;65863;49.506;10.400;2023-07-16T13:37:59;98081.63;;;27.78;39.44
9423;BME280;65863;49.506;10.400;2023-07-16T13:40:43;98082.78;;;27.69;40.38
9423;BME280;65863;49.506;10.400;2023-07-16T13:43:27;97905.44;;;26.49;40.33
9423;BME280;65863;49.506;10.400;2023-07-16T13:46:11;98080.03;;;27.49;40.67
9423;BME280;65863;49.506;10.400;2023-07-16T13:48:55;98072.66;;;27.92;40.95
9423;BME280;65863;49.506;10.400;2023-07-16T13:51:40;98060.59;;;28.50;40.31
9423;BME280;65863;49.506;10.400;2023-07-16T13:54:24;98035.84;;;27.91;38.63
9423;BME280;65863;49.506;10.400;2023-07-16T13:57:08;98029.59;;;27.74;39.76
9423;BME280;65863;49.506;10.400;2023-07-16T13:59:52;98050.44;;;27.97;40.14
9423;BME280;65863;49.506;10.400;2023-07-16T14:02:36;98045.88;;;27.63;39.82
9423;BME280;65863;49.506;10.400;2023-07-16T14:05:20;98047.03;;;27.78;39.27
9423;BME280;65863;49.506;10.400;2023-07-16T14:08:05;98050.69;;;27.81;39.40
9423;BME280;65863;49.506;10.400;2023-07-16T14:10:49;98045.19;;;27.65;39.27
9423;BME280;65863;49.506;10.400;2023-07-16T14:13:33;98030.09;;;27.91;39.09
9423;BME280;65863;49.506;10.400;2023-07-16T14:16:18;98027.50;;;27.77;38.67
9423;BME280;65863;49.506;10.400;2023-07-16T14:19:02;97993.72;;;27.79;38.05
9423;BME280;65863;49.506;10.400;2023-07-16T14:21:46;97970.75;;;27.57;38.15
9423;BME280;65863;49.506;10.400;2023-07-16T14:24:31;97804.75;;;26.49;38.43
9423;BME280;65863;49.506;10.400;2023-07-16T14:27:15;97807.75;;;26.53;38.47
9423;BME280;65863;49.506;10.400;2023-07-16T14:30:01;97914.28;;;26.77;38.80
9423;BME280;65863;49.506;10.400;2023-07-16T14:32:46;97794.91;;;25.90;39.77
9423;BME280;65863;49.506;10.400;2023-07-16T14:35:33;97783.09;;;26.24;39.53